Time;durP1;ratioP1;P1;durP2;ratioP2;P2;SDS_P1;SDS_P2;PMS_P1;PMS_P2;Temp;Humidity;BMP_temperature;BMP_pressure;BME280_temperature;BME280_humidity;BME280_pressure;Samples;Min_cycle;Max_cycle;Signal;HPM_P1;HPM_P2
2021/11/08 00:01:37;;;;;;;2.40;2.20;;;;;;;;;;5072834;28;20062;-81
2021/11/08 00:04:03;;;;;;;0.47;0.47;;;;;;;;;;5073002;28;20033;-81
2021/11/08 00:06:28;;;;;;;0.32;0.32;;;;;;;;;;5072745;28;20426;-81
2021/11/08 00:08:53;;;;;;;1.98;1.55;;;;;;;;;;5073114;28;20060;-80
2021/11/08 00:11:19;;;;;;;1.10;1.05;;;;;;;;;;5072680;28;20532;-81
2021/11/08 00:13:45;;;;;;;0.20;0.20;;;;;;;;;;5072851;28;20012;-81
2021/11/08 00:21:07;;;;;;;1.58;1.48;;;;;;;;;;5072861;28;20020;-81
2021/11/08 00:23:33;;;;;;;0.60;0.60;;;;;;;;;;5072734;28;20028;-81
2021/11/08 00:25:58;;;;;;;0.40;0.40;;;;;;;;;;5072748;28;20043;-81
2021/11/08 00:28:24;;;;;;;1.13;1.05;;;;;;;;;;5072681;28;20025;-81
2021/11/08 00:30:50;;;;;;;0.20;0.20;;;;;;;;;;5072729;28;20082;-81
2021/11/08 00:33:16;;;;;;;0.20;0.20;;;;;;;;;;5082195;28;20035;-81
2021/11/08 00:35:46;;;;;;;0.10;0.10;;;;;;;;;;5095972;28;20484;-81
2021/11/08 00:38:11;;;;;;;2.67;2.05;;;;;;;;;;5096608;28;20024;-81
2021/11/08 00:40:37;;;;;;;0.13;0.13;;;;;;;;;;5096029;28;20538;-81
2021/11/08 00:43:03;;;;;;;1.98;1.75;;;;;;;;;;5096602;28;20074;-80
2021/11/08 00:45:28;;;;;;;0.57;0.57;;;;;;;;;;5095912;28;20551;-80
2021/11/08 00:47:55;;;;;;;0.20;0.20;;;;;;;;;;5096290;28;20032;-80
2021/11/08 00:50:22;;;;;;;4.38;2.33;;;;;;;;;;5096317;28;20013;-81
2021/11/08 00:52:48;;;;;;;0.10;0.10;;;;;;;;;;5095998;28;20031;-81
2021/11/08 00:55:14;;;;;;;0.88;0.77;;;;;;;;;;5095963;28;20594;-81
2021/11/08 00:57:41;;;;;;;1.40;1.30;;;;;;;;;;5095969;28;20012;-81
2021/11/08 01:00:07;;;;;;;0.10;0.10;;;;;;;;;;5096128;28;20035;-81
2021/11/08 01:02:33;;;;;;;23.38;2.05;;;;;;;;;;5095902;28;20107;-80
2021/11/08 01:05:00;;;;;;;1.10;0.73;;;;;;;;;;5095989;28;20174;-80
2021/11/08 01:07:25;;;;;;;1.17;1.00;;;;;;;;;;5095750;28;20028;-80
2021/11/08 01:09:51;;;;;;;0.22;0.22;;;;;;;;;;5096014;28;20034;-81
2021/11/08 01:12:17;;;;;;;0.55;0.45;;;;;;;;;;5095818;28;20076;-81
2021/11/08 01:14:42;;;;;;;0.85;0.85;;;;;;;;;;5095736;28;20085;-81
2021/11/08 01:17:08;;;;;;;0.73;0.73;;;;;;;;;;5095009;28;20032;-80
2021/11/08 01:19:34;;;;;;;0.30;0.30;;;;;;;;;;5095626;28;20095;-81
2021/11/08 01:22:07;;;;;;;0.63;0.57;;;;;;;;;;5095739;28;20058;-81
2021/11/08 01:24:38;;;;;;;1.83;1.67;;;;;;;;;;5095523;28;20032;-81
2021/11/08 01:27:04;;;;;;;2.65;2.45;;;;;;;;;;5095540;28;20043;-81
2021/11/08 01:29:31;;;;;;;1.23;1.13;;;;;;;;;;5095453;28;20030;-81
2021/11/08 01:31:58;;;;;;;0.10;0.10;;;;;;;;;;5110975;28;20377;-81
2021/11/08 01:34:25;;;;;;;0.50;0.50;;;;;;;;;;5095353;28;20059;-81
2021/11/08 01:36:52;;;;;;;0.15;0.15;;;;;;;;;;5095477;28;20052;-80
2021/11/08 01:39:25;;;;;;;0.10;0.10;;;;;;;;;;5095356;28;20016;-81
2021/11/08 01:41:51;;;;;;;0.10;0.10;;;;;;;;;;5095278;28;20024;-80
2021/11/08 01:44:16;;;;;;;0.28;0.28;;;;;;;;;;5094549;28;20059;-81
2021/11/08 01:46:42;;;;;;;0.10;0.10;;;;;;;;;;5094756;28;20119;-81
2021/11/08 01:49:08;;;;;;;2.67;1.35;;;;;;;;;;5095283;28;20384;-81
2021/11/08 01:51:35;;;;;;;0.20;0.20;;;;;;;;;;5094984;28;20040;-81
2021/11/08 01:54:02;;;;;;;0.40;0.40;;;;;;;;;;5094105;28;20394;-81
2021/11/08 01:56:27;;;;;;;0.10;0.10;;;;;;;;;;5094593;28;20574;-81
2021/11/08 01:58:53;;;;;;;0.10;0.10;;;;;;;;;;5094704;28;20035;-81
2021/11/08 02:01:18;;;;;;;0.43;0.43;;;;;;;;;;5094978;28;20020;-81
2021/11/08 02:03:44;;;;;;;1.05;1.05;;;;;;;;;;5094728;28;20060;-80
2021/11/08 02:06:10;;;;;;;0.10;0.10;;;;;;;;;;5094765;28;20135;-80
2021/11/08 02:08:38;;;;;;;0.50;0.50;;;;;;;;;;5094694;28;20059;-80
2021/11/08 02:11:03;;;;;;;0.25;0.25;;;;;;;;;;5094883;28;20028;-80
2021/11/08 02:13:28;;;;;;;0.45;0.45;;;;;;;;;;5094571;28;20038;-81
2021/11/08 02:15:54;;;;;;;0.10;0.10;;;;;;;;;;5094519;28;20146;-80
2021/11/08 02:18:21;;;;;;;0.57;0.57;;;;;;;;;;5094450;28;20460;-80
2021/11/08 02:20:47;;;;;;;0.65;0.65;;;;;;;;;;5093248;28;20389;-81
2021/11/08 02:23:14;;;;;;;0.15;0.15;;;;;;;;;;5094521;28;20101;-81
2021/11/08 02:25:40;;;;;;;0.47;0.47;;;;;;;;;;5094364;28;20039;-80
2021/11/08 02:28:06;;;;;;;0.10;0.10;;;;;;;;;;5094411;28;20032;-80
2021/11/08 02:30:34;;;;;;;0.15;0.15;;;;;;;;;;5094277;28;20027;-81
2021/11/08 02:33:00;;;;;;;0.10;0.10;;;;;;;;;;5094241;28;20024;-80
2021/11/08 02:35:26;;;;;;;0.10;0.10;;;;;;;;;;5094039;28;20073;-80
2021/11/08 02:37:52;;;;;;;0.20;0.20;;;;;;;;;;5094232;28;20016;-80
2021/11/08 02:40:21;;;;;;;0.10;0.10;;;;;;;;;;5094148;28;20042;-80
2021/11/08 02:42:49;;;;;;;0.20;0.20;;;;;;;;;;5094034;28;20075;-80
2021/11/08 02:45:15;;;;;;;0.30;0.30;;;;;;;;;;5093721;28;20574;-80
2021/11/08 02:47:42;;;;;;;0.10;0.10;;;;;;;;;;5093632;28;20487;-80
2021/11/08 02:50:07;;;;;;;0.52;0.52;;;;;;;;;;5093804;28;20039;-80
2021/11/08 02:52:33;;;;;;;0.50;0.50;;;;;;;;;;5093439;28;20020;-80
2021/11/08 02:55:00;;;;;;;0.20;0.20;;;;;;;;;;5093987;28;20034;-80
2021/11/08 02:57:27;;;;;;;0.35;0.35;;;;;;;;;;5093600;28;20034;-80
2021/11/08 02:59:53;;;;;;;0.63;0.63;;;;;;;;;;5093754;28;20028;-80
2021/11/08 03:02:20;;;;;;;0.88;0.85;;;;;;;;;;5093588;28;20084;-80
2021/11/08 03:04:49;;;;;;;0.15;0.15;;;;;;;;;;5093633;28;20044;-80
2021/11/08 03:07:14;;;;;;;0.10;0.10;;;;;;;;;;5093763;28;20016;-80
2021/11/08 03:09:42;;;;;;;0.10;0.10;;;;;;;;;;5093626;28;20031;-80
2021/11/08 03:12:14;;;;;;;0.10;0.10;;;;;;;;;;5094073;28;20114;-80
2021/11/08 03:17:34;;;;;;;0.43;0.43;;;;;;;;;;5082978;28;20050;-80
2021/11/08 03:20:00;;;;;;;0.10;0.10;;;;;;;;;;5093660;28;20032;-80
2021/11/08 03:22:30;;;;;;;0.10;0.10;;;;;;;;;;5093461;28;20060;-80
2021/11/08 03:25:00;;;;;;;0.10;0.10;;;;;;;;;;5093532;28;20032;-80
2021/11/08 03:27:51;;;;;;;0.73;0.73;;;;;;;;;;5093512;28;20028;-80
2021/11/08 03:30:15;;;;;;;2.10;1.88;;;;;;;;;;5092840;28;20035;-80
2021/11/08 03:32:42;;;;;;;0.47;0.47;;;;;;;;;;5093300;28;20035;-80
2021/11/08 03:35:08;;;;;;;0.10;0.10;;;;;;;;;;5093455;28;20107;-80
2021/11/08 03:37:41;;;;;;;0.10;0.10;;;;;;;;;;5092862;28;20498;-80
2021/11/08 03:40:12;;;;;;;0.47;0.47;;;;;;;;;;5093404;28;20043;-80
2021/11/08 03:42:37;;;;;;;0.15;0.15;;;;;;;;;;5093305;28;20031;-80
2021/11/08 03:45:03;;;;;;;0.10;0.10;;;;;;;;;;5093337;28;20067;-80
2021/11/08 03:47:30;;;;;;;0.10;0.10;;;;;;;;;;5093316;28;20077;-80
2021/11/08 03:49:55;;;;;;;0.15;0.15;;;;;;;;;;5093369;28;20031;-80
2021/11/08 03:52:20;;;;;;;0.10;0.10;;;;;;;;;;5093231;28;20032;-80
2021/11/08 03:54:46;;;;;;;0.10;0.10;;;;;;;;;;5093155;28;20061;-80
2021/11/08 03:57:11;;;;;;;0.25;0.25;;;;;;;;;;5093359;28;20031;-80
2021/11/08 03:59:36;;;;;;;0.10;0.10;;;;;;;;;;5093131;28;20401;-80
2021/11/08 04:02:02;;;;;;;1.42;1.33;;;;;;;;;;5093253;28;20487;-80
2021/11/08 04:04:27;;;;;;;0.10;0.10;;;;;;;;;;5092989;28;20063;-80
2021/11/08 04:06:52;;;;;;;0.10;0.10;;;;;;;;;;5093191;28;20040;-80
2021/11/08 04:09:18;;;;;;;0.10;0.10;;;;;;;;;;5093996;28;20024;-80
2021/11/08 04:11:43;;;;;;;0.10;0.10;;;;;;;;;;5096607;28;20070;-80
2021/11/08 04:14:10;;;;;;;0.10;0.10;;;;;;;;;;5096988;28;20043;-80
2021/11/08 04:16:35;;;;;;;0.10;0.10;;;;;;;;;;5096848;28;20027;-80
2021/11/08 04:19:01;;;;;;;0.10;0.10;;;;;;;;;;5097334;28;20040;-80
2021/11/08 04:21:27;;;;;;;0.10;0.10;;;;;;;;;;5096672;28;20375;-80
2021/11/08 04:23:53;;;;;;;0.20;0.20;;;;;;;;;;5096257;28;20016;-80
2021/11/08 04:26:24;;;;;;;0.10;0.10;;;;;;;;;;5096636;28;20044;-80
2021/11/08 04:28:54;;;;;;;0.10;0.10;;;;;;;;;;5096647;28;20044;-80
2021/11/08 04:31:20;;;;;;;0.10;0.10;;;;;;;;;;5096658;28;20019;-80
2021/11/08 04:33:49;;;;;;;0.10;0.10;;;;;;;;;;5096471;28;20419;-80
2021/11/08 04:39:10;;;;;;;0.10;0.10;;;;;;;;;;5096492;28;20056;-80
2021/11/08 05:24:34;;;;;;;0.10;0.10;;;;;;;;;;5095642;28;20114;-80
2021/11/08 05:31:55;;;;;;;0.10;0.10;;;;;;;;;;5095500;28;20461;-80
2021/11/08 05:34:20;;;;;;;0.43;0.43;;;;;;;;;;5095580;28;20017;-80
2021/11/08 05:36:46;;;;;;;0.10;0.10;;;;;;;;;;5094922;28;20052;-80
2021/11/08 05:39:12;;;;;;;0.10;0.10;;;;;;;;;;5095367;28;20020;-80
2021/11/08 05:41:39;;;;;;;1.60;0.60;;;;;;;;;;5095239;28;20043;-80
2021/11/08 05:44:04;;;;;;;0.10;0.10;;;;;;;;;;5095239;28;20032;-80
2021/11/08 05:46:30;;;;;;;0.20;0.20;;;;;;;;;;5095098;28;20482;-80
2021/11/08 05:48:55;;;;;;;0.10;0.10;;;;;;;;;;5095187;28;20016;-80
2021/11/08 05:51:21;;;;;;;0.10;0.10;;;;;;;;;;5095171;28;20024;-80
2021/11/08 05:53:47;;;;;;;9.43;1.45;;;;;;;;;;5094878;28;20024;-80
2021/11/08 05:56:30;;;;;;;0.63;0.63;;;;;;;;;;5094889;28;20020;-80
2021/11/08 05:59:11;;;;;;;0.15;0.15;;;;;;;;;;5094977;28;20414;-81
2021/11/08 06:50:31;;;;;;;0.20;0.20;;;;;;;;;;5093636;28;20073;-82
2021/11/08 06:53:06;;;;;;;0.20;0.20;;;;;;;;;;5094252;28;20032;-81
2021/11/08 06:55:32;;;;;;;0.35;0.35;;;;;;;;;;5093830;28;20031;-81
2021/11/08 06:58:10;;;;;;;0.28;0.28;;;;;;;;;;5094031;28;20028;-81
2021/11/08 07:00:35;;;;;;;0.10;0.10;;;;;;;;;;5093485;28;20023;-81
2021/11/08 07:03:01;;;;;;;0.90;0.80;;;;;;;;;;5093934;28;20032;-81
2021/11/08 07:05:26;;;;;;;0.20;0.20;;;;;;;;;;5093419;28;20460;-81
2021/11/08 07:07:51;;;;;;;0.10;0.10;;;;;;;;;;5093578;28;20024;-81
2021/11/08 07:10:20;;;;;;;0.10;0.10;;;;;;;;;;5093239;28;20460;-81
2021/11/08 07:12:46;;;;;;;0.20;0.20;;;;;;;;;;5092934;28;20464;-81
2021/11/08 07:15:12;;;;;;;1.08;0.85;;;;;;;;;;5093247;28;20020;-81
2021/11/08 07:17:37;;;;;;;0.52;0.25;;;;;;;;;;5092628;28;20028;-82
2021/11/08 07:20:03;;;;;;;0.10;0.10;;;;;;;;;;5093176;28;20039;-81
2021/11/08 07:22:28;;;;;;;0.10;0.10;;;;;;;;;;5093130;28;20411;-81
2021/11/08 07:24:53;;;;;;;0.40;0.32;;;;;;;;;;5093091;28;20107;-81
2021/11/08 07:27:19;;;;;;;1.65;1.55;;;;;;;;;;5093123;28;20027;-81
2021/11/08 07:29:44;;;;;;;0.30;0.30;;;;;;;;;;5092681;28;20422;-81
2021/11/08 07:32:10;;;;;;;0.10;0.10;;;;;;;;;;5092787;28;20045;-81
2021/11/08 07:34:35;;;;;;;0.98;0.98;;;;;;;;;;5092885;28;20047;-82
2021/11/08 07:37:00;;;;;;;0.30;0.30;;;;;;;;;;5092521;28;20048;-81
2021/11/08 07:39:26;;;;;;;0.38;0.38;;;;;;;;;;5093046;28;20066;-81
2021/11/08 07:41:51;;;;;;;0.90;0.90;;;;;;;;;;5092831;28;20008;-81
2021/11/08 07:44:17;;;;;;;0.98;0.65;;;;;;;;;;5095750;28;20028;-81
2021/11/08 07:46:43;;;;;;;0.10;0.10;;;;;;;;;;5096682;28;20036;-81
2021/11/08 07:49:08;;;;;;;1.20;1.10;;;;;;;;;;5097668;28;20026;-82
2021/11/08 07:51:33;;;;;;;0.30;0.30;;;;;;;;;;5097394;28;20107;-81
2021/11/08 07:53:58;;;;;;;0.30;0.30;;;;;;;;;;5097373;28;20057;-81
2021/11/08 07:56:24;;;;;;;0.52;0.52;;;;;;;;;;5096931;28;20015;-82
2021/11/08 07:58:49;;;;;;;0.30;0.30;;;;;;;;;;5096789;28;20027;-82
2021/11/08 08:01:15;;;;;;;0.45;0.45;;;;;;;;;;5096479;28;20575;-82
2021/11/08 08:03:40;;;;;;;0.22;0.22;;;;;;;;;;5096347;28;20068;-81
2021/11/08 08:06:06;;;;;;;0.10;0.10;;;;;;;;;;5096650;28;20027;-81
2021/11/08 08:08:31;;;;;;;1.10;0.70;;;;;;;;;;5096560;28;20032;-82
2021/11/08 08:10:57;;;;;;;0.20;0.20;;;;;;;;;;5096494;28;20012;-81
2021/11/08 08:13:26;;;;;;;0.13;0.13;;;;;;;;;;5096681;28;20015;-82
2021/11/08 08:15:54;;;;;;;0.10;0.10;;;;;;;;;;5096439;28;20028;-81
2021/11/08 08:18:19;;;;;;;0.20;0.20;;;;;;;;;;5096507;28;20057;-82
2021/11/08 08:20:45;;;;;;;1.95;0.82;;;;;;;;;;5096333;28;20016;-82
2021/11/08 08:23:10;;;;;;;2.38;1.95;;;;;;;;;;5096413;28;20024;-81
2021/11/08 08:25:36;;;;;;;4.57;0.77;;;;;;;;;;5095832;28;20379;-82
2021/11/08 08:28:01;;;;;;;0.10;0.10;;;;;;;;;;5096460;28;20095;-82
2021/11/08 08:30:27;;;;;;;7.22;1.55;;;;;;;;;;5096690;28;20036;-82
2021/11/08 08:32:52;;;;;;;0.30;0.30;;;;;;;;;;5096065;28;20020;-82
2021/11/08 08:35:18;;;;;;;2.55;0.98;;;;;;;;;;5095946;28;20028;-81
2021/11/08 08:37:43;;;;;;;1.42;1.33;;;;;;;;;;5094537;28;20414;-81
2021/11/08 08:40:09;;;;;;;0.60;0.60;;;;;;;;;;5094933;28;20012;-81
2021/11/08 08:42:34;;;;;;;0.10;0.10;;;;;;;;;;5094858;28;20015;-82
2021/11/08 08:45:00;;;;;;;0.20;0.20;;;;;;;;;;5094784;28;20114;-81
2021/11/08 08:47:25;;;;;;;0.43;0.43;;;;;;;;;;5094852;28;20063;-82
2021/11/08 08:49:50;;;;;;;0.10;0.10;;;;;;;;;;5095013;28;20380;-83
2021/11/08 08:52:16;;;;;;;0.57;0.57;;;;;;;;;;5095017;28;20028;-83
2021/11/08 08:54:42;;;;;;;4.07;3.05;;;;;;;;;;5093138;28;20047;-83
2021/11/08 08:57:08;;;;;;;3.10;1.35;;;;;;;;;;5094607;28;20027;-83
2021/11/08 08:59:33;;;;;;;4.00;1.63;;;;;;;;;;5094448;28;20055;-83
2021/11/08 09:01:59;;;;;;;0.43;0.43;;;;;;;;;;5094453;28;20016;-83
2021/11/08 09:04:28;;;;;;;1.17;1.08;;;;;;;;;;5094223;28;20012;-83
2021/11/08 09:06:53;;;;;;;0.10;0.10;;;;;;;;;;5094211;28;20043;-83
2021/11/08 09:09:19;;;;;;;1.55;0.55;;;;;;;;;;5094644;28;20024;-83
2021/11/08 09:11:44;;;;;;;0.30;0.30;;;;;;;;;;5094831;28;20099;-83
2021/11/08 09:14:09;;;;;;;0.00;0.00;;;;;;;;;;5094841;28;20070;-82
2021/11/08 09:16:35;;;;;;;0.10;0.10;;;;;;;;;;5089479;28;20131;-82
2021/11/08 09:19:01;;;;;;;0.10;0.10;;;;;;;;;;5090556;28;20020;-82
2021/11/08 09:21:27;;;;;;;2.00;1.67;;;;;;;;;;5091273;28;20032;-82
2021/11/08 09:23:55;;;;;;;2.17;1.02;;;;;;;;;;5087392;28;20028;-82
2021/11/08 09:26:22;;;;;;;5.95;1.13;;;;;;;;;;5085234;28;20039;-82
2021/11/08 09:28:48;;;;;;;0.10;0.10;;;;;;;;;;5086771;28;20778;-82
2021/11/08 09:31:13;;;;;;;0.70;0.70;;;;;;;;;;5086844;28;20099;-82
2021/11/08 09:33:39;;;;;;;0.17;0.17;;;;;;;;;;5090132;28;20089;-82
2021/11/08 09:36:08;;;;;;;0.10;0.10;;;;;;;;;;5048044;28;1190444;-82
2021/11/08 09:38:35;;;;;;;0.00;0.00;;;;;;;;;;5091054;28;20538;-82
2021/11/08 09:41:01;;;;;;;0.10;0.10;;;;;;;;;;5089988;28;20027;-82
2021/11/08 09:43:27;;;;;;;0.00;0.00;;;;;;;;;;5090842;28;20457;-82
2021/11/08 09:45:53;;;;;;;0.50;0.50;;;;;;;;;;5090233;28;20127;-82
2021/11/08 09:48:18;;;;;;;0.15;0.15;;;;;;;;;;5090436;28;20028;-82
2021/11/08 09:50:45;;;;;;;0.00;0.00;;;;;;;;;;5091166;28;20101;-82
2021/11/08 09:53:10;;;;;;;0.10;0.10;;;;;;;;;;5090567;28;20384;-82
2021/11/08 09:55:36;;;;;;;0.35;0.32;;;;;;;;;;5091677;28;20027;-82
2021/11/08 09:58:02;;;;;;;11.80;0.63;;;;;;;;;;5090184;28;20016;-82
2021/11/08 10:00:43;;;;;;;0.20;0.20;;;;;;;;;;5090963;28;20032;-82
2021/11/08 10:03:20;;;;;;;0.20;0.20;;;;;;;;;;5091554;28;20476;-82
2021/11/08 10:05:46;;;;;;;1.95;0.93;;;;;;;;;;5089668;28;20049;-82
2021/11/08 10:08:13;;;;;;;0.00;0.00;;;;;;;;;;5091278;28;20145;-82
2021/11/08 10:10:38;;;;;;;2.67;1.20;;;;;;;;;;5090547;28;20201;-82
2021/11/08 10:13:03;;;;;;;2.40;1.05;;;;;;;;;;5091179;28;20107;-82
2021/11/08 10:15:29;;;;;;;0.20;0.20;;;;;;;;;;5090491;28;20032;-82
2021/11/08 10:17:54;;;;;;;0.47;0.47;;;;;;;;;;5090432;28;20441;-82
2021/11/08 10:20:33;;;;;;;0.88;0.88;;;;;;;;;;5091288;28;20039;-82
2021/11/08 10:22:58;;;;;;;0.60;0.60;;;;;;;;;;5090978;28;20045;-82
2021/11/08 10:25:25;;;;;;;0.40;0.40;;;;;;;;;;5091019;28;20106;-82
2021/11/08 10:27:51;;;;;;;1.55;1.30;;;;;;;;;;5090541;28;20024;-82
2021/11/08 10:30:21;;;;;;;1.25;0.98;;;;;;;;;;5090884;28;20392;-82
2021/11/08 10:32:46;;;;;;;0.85;0.65;;;;;;;;;;5089826;28;20030;-82
2021/11/08 10:35:11;;;;;;;1.15;1.10;;;;;;;;;;5090609;28;20024;-82
2021/11/08 10:37:37;;;;;;;29.73;3.03;;;;;;;;;;5090035;28;20123;-82
2021/11/08 10:40:03;;;;;;;0.43;0.43;;;;;;;;;;5091192;28;20463;-82
2021/11/08 10:42:30;;;;;;;1.30;1.25;;;;;;;;;;5091427;28;20016;-82
2021/11/08 10:44:56;;;;;;;47.60;4.20;;;;;;;;;;5090414;28;20891;-81
2021/11/08 10:47:21;;;;;;;0.25;0.25;;;;;;;;;;5090609;28;20086;-81
2021/11/08 10:49:47;;;;;;;0.73;0.52;;;;;;;;;;5090069;28;20024;-82
2021/11/08 10:52:14;;;;;;;0.57;0.57;;;;;;;;;;5090925;28;20024;-82
2021/11/08 10:54:45;;;;;;;0.55;0.55;;;;;;;;;;5090806;28;20055;-82
2021/11/08 10:57:12;;;;;;;1.52;1.00;;;;;;;;;;5087927;28;20036;-81
2021/11/08 10:59:44;;;;;;;0.85;0.63;;;;;;;;;;5090824;28;20078;-82
2021/11/08 11:02:12;;;;;;;0.20;0.20;;;;;;;;;;5090337;28;20065;-82
2021/11/08 11:04:40;;;;;;;0.90;0.82;;;;;;;;;;5090055;28;20114;-82
2021/11/08 11:07:06;;;;;;;0.03;0.03;;;;;;;;;;5089715;28;20032;-82
2021/11/08 11:09:35;;;;;;;0.00;0.00;;;;;;;;;;5079792;28;20039;-82
2021/11/08 11:12:05;;;;;;;1.20;1.10;;;;;;;;;;5068894;28;20029;-82
2021/11/08 11:14:35;;;;;;;2.75;1.65;;;;;;;;;;5069988;28;20385;-82
2021/11/08 11:17:03;;;;;;;0.57;0.57;;;;;;;;;;5069202;28;20016;-81
2021/11/08 11:19:32;;;;;;;0.98;0.65;;;;;;;;;;5069303;28;20037;-82
2021/11/08 11:21:59;;;;;;;2.42;1.75;;;;;;;;;;5068757;28;20043;-82
2021/11/08 11:24:32;;;;;;;0.43;0.43;;;;;;;;;;5069808;28;20113;-81
2021/11/08 11:26:57;;;;;;;2.05;0.80;;;;;;;;;;5068960;28;20079;-82
2021/11/08 11:29:29;;;;;;;0.10;0.10;;;;;;;;;;5070051;28;20166;-82
2021/11/08 11:31:55;;;;;;;0.10;0.10;;;;;;;;;;5069497;28;20016;-82
2021/11/08 11:34:21;;;;;;;0.20;0.20;;;;;;;;;;5086918;28;20035;-82
2021/11/08 11:36:46;;;;;;;1.70;1.58;;;;;;;;;;5088573;28;20396;-82
2021/11/08 11:39:13;;;;;;;1.23;0.82;;;;;;;;;;5089762;28;20448;-82
2021/11/08 11:41:40;;;;;;;1.85;1.52;;;;;;;;;;5088761;28;20036;-81
2021/11/08 11:44:06;;;;;;;3.30;0.93;;;;;;;;;;5089492;28;20444;-84
2021/11/08 11:46:33;;;;;;;0.10;0.10;;;;;;;;;;5079342;28;20047;-82
2021/11/08 11:49:03;;;;;;;0.10;0.10;;;;;;;;;;5069206;28;20434;-82
2021/11/08 11:51:39;;;;;;;0.20;0.20;;;;;;;;;;5069548;28;20047;-82
2021/11/08 11:54:05;;;;;;;0.70;0.70;;;;;;;;;;5069401;28;20034;-82
2021/11/08 11:56:32;;;;;;;2.30;1.45;;;;;;;;;;5066470;28;20983;-82
2021/11/08 11:58:58;;;;;;;0.55;0.55;;;;;;;;;;5069464;28;20070;-82
2021/11/08 12:01:24;;;;;;;1.48;1.27;;;;;;;;;;5069410;28;20037;-81
2021/11/08 12:03:49;;;;;;;4.15;2.15;;;;;;;;;;5069010;28;20040;-82
2021/11/08 12:06:16;;;;;;;0.10;0.10;;;;;;;;;;5088685;28;20080;-82
2021/11/08 12:08:42;;;;;;;0.50;0.35;;;;;;;;;;5089448;28;20028;-82
2021/11/08 12:11:08;;;;;;;0.20;0.20;;;;;;;;;;5089856;28;20024;-81
2021/11/08 12:13:39;;;;;;;1.13;1.05;;;;;;;;;;5089799;28;20495;-82
2021/11/08 12:16:14;;;;;;;1.65;1.38;;;;;;;;;;5089555;28;20032;-82
2021/11/08 12:18:40;;;;;;;1.77;0.95;;;;;;;;;;5089813;28;20074;-81
2021/11/08 12:21:05;;;;;;;1.02;0.98;;;;;;;;;;5089398;28;20063;-81
2021/11/08 12:23:31;;;;;;;0.63;0.63;;;;;;;;;;5089756;28;20032;-82
2021/11/08 12:25:58;;;;;;;0.10;0.10;;;;;;;;;;5089158;28;20071;-82
2021/11/08 12:28:25;;;;;;;0.08;0.08;;;;;;;;;;5090162;28;20032;-82
2021/11/08 12:30:52;;;;;;;1.50;1.10;;;;;;;;;;5093681;28;20039;-82
2021/11/08 12:33:26;;;;;;;1.10;0.50;;;;;;;;;;5092912;28;20023;-82
2021/11/08 12:35:53;;;;;;;0.73;0.73;;;;;;;;;;5092899;28;20052;-81
2021/11/08 12:38:18;;;;;;;0.40;0.40;;;;;;;;;;5093042;28;20043;-82
2021/11/08 12:40:44;;;;;;;0.63;0.63;;;;;;;;;;5089922;28;20027;-81
2021/11/08 12:43:10;;;;;;;1.15;0.85;;;;;;;;;;5092382;28;20024;-81
2021/11/08 12:45:41;;;;;;;1.05;1.00;;;;;;;;;;5091235;28;20032;-82
2021/11/08 12:48:08;;;;;;;0.73;0.73;;;;;;;;;;5092605;28;20023;-82
2021/11/08 12:50:38;;;;;;;0.95;0.90;;;;;;;;;;5092841;28;20024;-81
2021/11/08 12:53:04;;;;;;;1.35;0.73;;;;;;;;;;5091972;28;20032;-82
2021/11/08 12:55:39;;;;;;;0.20;0.20;;;;;;;;;;5092460;28;20376;-81
2021/11/08 12:58:06;;;;;;;0.45;0.45;;;;;;;;;;5093069;28;20032;-81
2021/11/08 13:00:37;;;;;;;0.20;0.20;;;;;;;;;;5093723;28;20043;-82
2021/11/08 13:03:11;;;;;;;0.20;0.20;;;;;;;;;;5092922;28;20070;-81
2021/11/08 13:05:47;;;;;;;0.65;0.65;;;;;;;;;;5092586;28;20039;-82
2021/11/08 13:08:16;;;;;;;0.82;0.45;;;;;;;;;;5093164;28;20042;-81
2021/11/08 13:10:41;;;;;;;1.00;0.95;;;;;;;;;;5093011;28;20101;-82
2021/11/08 13:13:08;;;;;;;2.58;0.77;;;;;;;;;;5092790;28;20464;-82
2021/11/08 13:15:37;;;;;;;0.90;0.88;;;;;;;;;;5092380;28;20371;-82
2021/11/08 13:18:06;;;;;;;0.20;0.20;;;;;;;;;;5092483;28;20047;-82
2021/11/08 13:20:33;;;;;;;0.22;0.20;;;;;;;;;;5091021;28;20032;-82
2021/11/08 13:23:19;;;;;;;0.20;0.15;;;;;;;;;;5092340;28;20069;-82
2021/11/08 13:25:46;;;;;;;0.70;0.63;;;;;;;;;;5088594;28;20044;-82
2021/11/08 13:28:13;;;;;;;0.20;0.20;;;;;;;;;;5092098;28;20047;-81
2021/11/08 13:30:38;;;;;;;0.20;0.20;;;;;;;;;;5092294;28;20488;-82
2021/11/08 13:33:05;;;;;;;0.35;0.35;;;;;;;;;;5085132;28;20035;-82
2021/11/08 13:35:30;;;;;;;0.10;0.10;;;;;;;;;;5071057;28;20028;-82
2021/11/08 13:38:01;;;;;;;0.52;0.52;;;;;;;;;;5072208;28;20023;-82
2021/11/08 13:40:28;;;;;;;0.20;0.20;;;;;;;;;;5070838;28;20029;-82
2021/11/08 13:43:03;;;;;;;0.05;0.05;;;;;;;;;;5071116;28;20932;-82
2021/11/08 13:45:29;;;;;;;;;;;;;;;;;;5072022;28;20041;-82
2021/11/08 13:47:54;;;;;;;0.00;0.00;;;;;;;;;;5071786;28;19915;-82
2021/11/08 13:50:21;;;;;;;0.00;0.00;;;;;;;;;;5071462;28;20313;-82
2021/11/08 13:52:48;;;;;;;0.52;0.52;;;;;;;;;;5067160;28;20469;-81
2021/11/08 13:55:14;;;;;;;0.03;0.03;;;;;;;;;;5063880;28;20017;-82
2021/11/08 13:57:43;;;;;;;2.75;0.95;;;;;;;;;;5079342;28;20541;-82
2021/11/08 14:00:13;;;;;;;0.50;0.50;;;;;;;;;;5091282;28;20031;-82
2021/11/08 14:02:38;;;;;;;1.20;1.10;;;;;;;;;;5091128;28;20016;-82
2021/11/08 14:05:04;;;;;;;0.35;0.30;;;;;;;;;;5089485;28;20043;-81
2021/11/08 14:07:29;;;;;;;3.55;2.45;;;;;;;;;;5090148;28;20108;-82
2021/11/08 14:09:56;;;;;;;2.60;0.77;;;;;;;;;;5090987;28;20024;-82
2021/11/08 14:12:23;;;;;;;1.02;0.40;;;;;;;;;;5091045;28;20075;-82
2021/11/08 14:14:49;;;;;;;0.20;0.20;;;;;;;;;;5074466;28;20028;-81
2021/11/08 14:17:18;;;;;;;0.90;0.55;;;;;;;;;;5066774;28;20036;-82
2021/11/08 14:19:45;;;;;;;1.05;0.95;;;;;;;;;;5083588;28;20089;-82
2021/11/08 14:22:11;;;;;;;0.10;0.10;;;;;;;;;;5090060;28;20028;-82
2021/11/08 14:24:40;;;;;;;0.20;0.20;;;;;;;;;;5089542;28;20564;-82
2021/11/08 14:27:10;;;;;;;1.35;1.27;;;;;;;;;;5090134;28;20044;-82
2021/11/08 14:29:36;;;;;;;0.55;0.55;;;;;;;;;;5089994;28;20035;-82
2021/11/08 14:32:03;;;;;;;9.48;0.75;;;;;;;;;;5089981;28;20040;-82
2021/11/08 14:34:33;;;;;;;0.20;0.20;;;;;;;;;;5089154;28;20067;-82
2021/11/08 14:36:59;;;;;;;2.25;0.73;;;;;;;;;;5087986;28;20048;-82
2021/11/08 14:39:27;;;;;;;0.20;0.20;;;;;;;;;;5090292;28;20044;-81
2021/11/08 14:41:55;;;;;;;0.40;0.40;;;;;;;;;;5089680;28;20035;-81
2021/11/08 14:44:21;;;;;;;0.40;0.40;;;;;;;;;;5086499;28;20028;-81
2021/11/08 14:46:50;;;;;;;1.98;1.77;;;;;;;;;;5089607;28;20507;-81
2021/11/08 14:49:20;;;;;;;0.52;0.52;;;;;;;;;;5090239;28;20023;-81
2021/11/08 14:51:57;;;;;;;0.63;0.63;;;;;;;;;;5089025;28;20028;-81
2021/11/08 14:54:22;;;;;;;0.50;0.50;;;;;;;;;;5089454;28;20036;-81
2021/11/08 14:56:50;;;;;;;0.20;0.20;;;;;;;;;;5090029;28;20028;-81
2021/11/08 14:59:16;;;;;;;4.53;1.10;;;;;;;;;;5090263;28;20047;-81
2021/11/08 15:01:43;;;;;;;0.45;0.45;;;;;;;;;;5089499;28;20016;-83
2021/11/08 15:04:17;;;;;;;0.32;0.30;;;;;;;;;;5090324;28;20024;-81
2021/11/08 15:06:57;;;;;;;1.42;1.33;;;;;;;;;;5089749;28;20058;-81
2021/11/08 15:09:24;;;;;;;0.10;0.10;;;;;;;;;;5089675;28;20367;-81
2021/11/08 15:11:49;;;;;;;1.67;1.10;;;;;;;;;;5089305;28;20028;-81
2021/11/08 15:14:16;;;;;;;3.40;1.85;;;;;;;;;;5069881;28;20096;-81
2021/11/08 15:17:02;;;;;;;1.38;1.17;;;;;;;;;;5069457;28;20032;-81
2021/11/08 15:19:27;;;;;;;11.02;1.65;;;;;;;;;;5069631;28;20131;-81
2021/11/08 15:21:54;;;;;;;0.98;0.98;;;;;;;;;;5069376;28;20468;-81
2021/11/08 15:24:23;;;;;;;0.98;0.80;;;;;;;;;;5070009;28;20036;-81
2021/11/08 15:26:49;;;;;;;0.90;0.65;;;;;;;;;;5067922;28;20433;-81
2021/11/08 15:29:19;;;;;;;0.57;0.57;;;;;;;;;;5069626;28;20032;-81
2021/11/08 15:31:44;;;;;;;0.17;0.17;;;;;;;;;;5069195;28;20498;-81
2021/11/08 15:34:14;;;;;;;4.47;2.55;;;;;;;;;;5084931;28;20028;-82
2021/11/08 15:36:50;;;;;;;0.10;0.10;;;;;;;;;;5088173;28;20063;-81
2021/11/08 15:39:17;;;;;;;0.10;0.10;;;;;;;;;;5089083;28;20384;-81
2021/11/08 15:41:42;;;;;;;0.10;0.10;;;;;;;;;;5089472;28;20059;-81
2021/11/08 15:44:08;;;;;;;0.50;0.50;;;;;;;;;;5089683;28;20075;-81
2021/11/08 15:46:36;;;;;;;0.10;0.10;;;;;;;;;;5088937;28;20444;-81
2021/11/08 15:49:02;;;;;;;2.45;0.73;;;;;;;;;;5090442;28;20481;-81
2021/11/08 15:51:29;;;;;;;0.28;0.28;;;;;;;;;;5089946;28;20093;-81
2021/11/08 15:53:55;;;;;;;0.30;0.30;;;;;;;;;;5089805;28;20372;-81
2021/11/08 15:56:20;;;;;;;0.10;0.10;;;;;;;;;;5088618;28;20441;-81
2021/11/08 15:58:45;;;;;;;0.63;0.63;;;;;;;;;;5089855;28;20039;-81
2021/11/08 16:01:11;;;;;;;0.10;0.10;;;;;;;;;;5089596;28;20027;-81
2021/11/08 16:03:36;;;;;;;0.98;0.98;;;;;;;;;;5090174;28;20020;-81
2021/11/08 16:06:02;;;;;;;0.75;0.75;;;;;;;;;;5093458;28;20050;-81
2021/11/08 16:08:28;;;;;;;1.00;0.95;;;;;;;;;;5077601;28;20028;-81
2021/11/08 16:10:53;;;;;;;0.17;0.17;;;;;;;;;;5072796;28;20491;-81
2021/11/08 16:13:19;;;;;;;0.17;0.17;;;;;;;;;;5072891;28;20033;-81
2021/11/08 16:15:45;;;;;;;10.25;0.63;;;;;;;;;;5073623;28;20036;-81
2021/11/08 16:18:11;;;;;;;0.00;0.00;;;;;;;;;;5073172;28;20028;-81
2021/11/08 16:20:38;;;;;;;0.35;0.35;;;;;;;;;;5072593;28;20111;-82
2021/11/08 16:23:04;;;;;;;0.30;0.30;;;;;;;;;;5072109;28;20032;-81
2021/11/08 16:25:29;;;;;;;1.45;1.15;;;;;;;;;;5072452;28;20465;-82
2021/11/08 16:27:55;;;;;;;0.38;0.38;;;;;;;;;;5071985;28;20033;-81
2021/11/08 16:30:20;;;;;;;0.10;0.10;;;;;;;;;;5073581;28;20445;-81